Time;durP1;ratioP1;P1;durP2;ratioP2;P2;SDS_P1;SDS_P2;PMS_P1;PMS_P2;Temp;Humidity;BMP_temperature;BMP_pressure;BME280_temperature;BME280_humidity;BME280_pressure;Samples;Min_cycle;Max_cycle;Signal;HPM_P1;HPM_P2
2023/05/27 00:01:13;;;;;;;;;;;;;;;17.91;59.70;93250.25;2055028;70;20136;-75
2023/05/27 00:03:39;;;;;;;;;;;;;;;17.84;60.00;93245.69;2055186;69;20475;-75
2023/05/27 00:06:04;;;;;;;;;;;;;;;17.83;59.89;93242.09;2055094;69;20117;-74
2023/05/27 00:08:30;;;;;;;;;;;;;;;17.73;59.96;93248.09;2054914;69;20046;-74
2023/05/27 00:10:55;;;;;;;;;;;;;;;17.57;60.97;93249.47;2054885;69;20066;-74
2023/05/27 00:13:22;;;;;;;;;;;;;;;17.68;60.43;93245.66;2054838;69;20140;-74
2023/05/27 00:15:47;;;;;;;;;;;;;;;17.64;60.04;93245.50;2054965;69;20056;-75
2023/05/27 00:18:13;;;;;;;;;;;;;;;17.56;60.67;93245.16;2055173;69;20118;-74
2023/05/27 00:20:39;;;;;;;;;;;;;;;17.43;59.93;93243.91;2054884;69;20126;-74
2023/05/27 00:23:04;;;;;;;;;;;;;;;17.43;60.04;93238.19;2055171;69;20053;-74
2023/05/27 00:25:31;;;;;;;;;;;;;;;17.45;60.31;93243.97;2055271;69;20062;-74
2023/05/27 00:27:56;;;;;;;;;;;;;;;17.34;60.95;93233.53;2054875;69;20042;-74
2023/05/27 00:30:22;;;;;;;;;;;;;;;17.27;61.13;93233.28;2054401;70;20049;-75
2023/05/27 00:32:47;;;;;;;;;;;;;;;17.37;60.12;93235.81;2054904;69;20051;-74
2023/05/27 00:35:13;;;;;;;;;;;;;;;17.27;60.71;93238.97;2054928;69;20093;-75
2023/05/27 00:37:39;;;;;;;;;;;;;;;17.39;60.08;93235.91;2054416;70;20581;-74
2023/05/27 00:40:05;;;;;;;;;;;;;;;17.20;60.76;93233.63;2054896;69;20070;-75
2023/05/27 00:42:31;;;;;;;;;;;;;;;17.09;61.05;93235.28;2057001;69;20052;-74
2023/05/27 00:44:57;;;;;;;;;;;;;;;17.12;61.49;93225.47;2054786;69;20543;-74
2023/05/27 00:47:27;;;;;;;;;;;;;;;17.05;60.98;93223.00;2055109;69;20046;-75
2023/05/27 00:49:53;;;;;;;;;;;;;;;17.03;61.61;93221.50;2054961;69;20057;-74
2023/05/27 00:52:21;;;;;;;;;;;;;;;17.13;60.97;93223.34;2054882;69;20061;-74
2023/05/27 00:54:46;;;;;;;;;;;;;;;16.96;61.56;93227.59;2054378;70;20132;-74
2023/05/27 00:57:12;;;;;;;;;;;;;;;16.97;61.47;93226.94;2055086;69;20058;-74
2023/05/27 00:59:37;;;;;;;;;;;;;;;16.95;61.09;93224.00;2057077;69;20057;-75
2023/05/27 01:02:03;;;;;;;;;;;;;;;16.82;61.24;93224.81;2054973;69;20046;-74
2023/05/27 01:04:29;;;;;;;;;;;;;;;16.89;60.60;93214.44;2054403;70;20047;-74
2023/05/27 01:06:54;;;;;;;;;;;;;;;16.84;61.20;93222.06;2054417;70;20054;-75
2023/05/27 01:09:39;;;;;;;;;;;;;;;16.75;61.15;93217.38;2054952;69;20051;-74
2023/05/27 01:12:06;;;;;;;;;;;;;;;16.70;61.95;93227.06;2054504;70;20434;-74
2023/05/27 01:14:33;;;;;;;;;;;;;;;16.71;60.96;93229.25;2054285;70;20043;-74
2023/05/27 01:17:01;;;;;;;;;;;;;;;16.68;60.33;93224.88;2054964;69;20054;-75
2023/05/27 01:19:30;;;;;;;;;;;;;;;16.53;61.94;93219.88;2054928;69;20047;-75
2023/05/27 01:21:56;;;;;;;;;;;;;;;16.55;61.63;93219.25;2054427;70;20165;-75
2023/05/27 01:24:22;;;;;;;;;;;;;;;16.39;62.09;93216.38;2054417;70;20426;-74
2023/05/27 01:26:47;;;;;;;;;;;;;;;16.52;61.99;93221.25;2054931;69;20054;-74
2023/05/27 01:29:13;;;;;;;;;;;;;;;16.49;62.10;93211.16;2054231;70;20051;-74
2023/05/27 01:32:02;;;;;;;;;;;;;;;16.47;62.04;93211.81;2054419;70;20062;-74
2023/05/27 01:34:34;;;;;;;;;;;;;;;16.24;63.36;93217.81;2055196;69;20051;-74
2023/05/27 01:37:05;;;;;;;;;;;;;;;16.29;62.83;93210.22;2054895;69;20046;-74
2023/05/27 01:39:32;;;;;;;;;;;;;;;16.41;62.49;93207.97;2054089;69;20054;-75
2023/05/27 01:41:59;;;;;;;;;;;;;;;16.07;61.80;93204.19;2054960;69;20046;-74
2023/05/27 01:44:24;;;;;;;;;;;;;;;16.06;61.74;93217.66;2054795;69;20116;-74
2023/05/27 01:46:50;;;;;;;;;;;;;;;16.13;62.12;93204.50;2054287;70;20073;-75
2023/05/27 01:49:15;;;;;;;;;;;;;;;15.93;61.37;93216.31;2054301;70;20305;-74
2023/05/27 01:51:41;;;;;;;;;;;;;;;16.22;60.25;93215.63;2054839;69;20058;-75
2023/05/27 01:54:06;;;;;;;;;;;;;;;16.36;60.03;93212.00;2054817;69;20042;-75
2023/05/27 01:56:32;;;;;;;;;;;;;;;16.37;60.08;93214.19;2054353;69;20057;-75
2023/05/27 01:58:58;;;;;;;;;;;;;;;16.31;60.06;93202.53;2054163;70;20482;-75
2023/05/27 02:01:23;;;;;;;;;;;;;;;16.35;60.46;93202.69;2054261;70;20045;-74
2023/05/27 02:03:50;;;;;;;;;;;;;;;16.27;60.87;93199.50;2054283;70;20054;-74
2023/05/27 02:06:16;;;;;;;;;;;;;;;16.17;61.23;93199.75;2054473;69;20153;-74
2023/05/27 02:08:41;;;;;;;;;;;;;;;16.32;60.94;93200.44;2051732;69;20079;-74
2023/05/27 02:11:06;;;;;;;;;;;;;;;16.30;61.26;93203.16;2051747;70;20070;-74
2023/05/27 02:13:32;;;;;;;;;;;;;;;16.42;61.06;93204.47;2051532;70;20165;-74
2023/05/27 02:15:58;;;;;;;;;;;;;;;16.36;61.33;93203.47;2051157;70;20145;-74
2023/05/27 02:18:25;;;;;;;;;;;;;;;16.22;62.11;93204.25;2051489;70;20082;-74
2023/05/27 02:20:50;;;;;;;;;;;;;;;16.27;61.97;93205.19;2050931;70;20050;-75
2023/05/27 02:23:18;;;;;;;;;;;;;;;16.32;60.91;93208.94;2051538;70;20603;-75
2023/05/27 02:25:43;;;;;;;;;;;;;;;16.41;61.35;93202.28;2053754;70;20138;-74
2023/05/27 02:28:09;;;;;;;;;;;;;;;16.32;61.59;93214.63;2050754;70;20051;-75
2023/05/27 02:30:34;;;;;;;;;;;;;;;16.41;60.69;93205.13;2050874;70;20047;-74
2023/05/27 02:33:00;;;;;;;;;;;;;;;16.33;60.08;93201.88;2051415;70;20049;-74
2023/05/27 02:35:25;;;;;;;;;;;;;;;16.39;59.38;93202.91;2053652;70;20062;-73
2023/05/27 02:37:51;;;;;;;;;;;;;;;16.35;60.33;93202.69;2051413;70;20055;-74
2023/05/27 02:40:27;;;;;;;;;;;;;;;16.37;59.77;93211.34;2050839;70;20066;-75
2023/05/27 02:42:55;;;;;;;;;;;;;;;16.32;62.35;93208.94;2053575;70;20054;-74
2023/05/27 02:45:20;;;;;;;;;;;;;;;16.42;61.17;93206.59;2051374;69;20046;-75
2023/05/27 02:47:46;;;;;;;;;;;;;;;16.44;60.74;93212.34;2050965;70;20431;-74
2023/05/27 02:50:11;;;;;;;;;;;;;;;16.36;60.45;93209.88;2050921;70;20153;-75
2023/05/27 02:52:37;;;;;;;;;;;;;;;16.47;60.25;93211.81;2053491;70;20423;-75
2023/05/27 02:55:03;;;;;;;;;;;;;;;16.46;60.87;93209.63;2051454;70;20196;-75
2023/05/27 02:57:31;;;;;;;;;;;;;;;16.19;61.28;93208.34;2050953;70;20439;-74
2023/05/27 02:59:56;;;;;;;;;;;;;;;16.26;60.87;93209.38;2051339;70;20081;-75
2023/05/27 03:02:21;;;;;;;;;;;;;;;16.29;60.21;93210.22;2050839;70;20472;-74
2023/05/27 03:04:48;;;;;;;;;;;;;;;16.31;61.44;93211.06;2051373;70;20415;-73
2023/05/27 03:07:16;;;;;;;;;;;;;;;16.37;61.19;93205.66;2050872;70;20050;-74
2023/05/27 03:09:42;;;;;;;;;;;;;;;16.39;62.01;93211.44;2053593;70;20051;-74
2023/05/27 03:12:07;;;;;;;;;;;;;;;16.35;61.59;93205.53;2050755;70;20050;-74
2023/05/27 03:14:33;;;;;;;;;;;;;;;16.21;63.17;93204.88;2050695;70;20072;-74
2023/05/27 03:16:58;;;;;;;;;;;;;;;16.19;63.76;93202.69;2050791;70;20103;-75
2023/05/27 03:19:25;;;;;;;;;;;;;;;16.30;62.22;93197.47;2050774;70;20058;-75
2023/05/27 03:21:51;;;;;;;;;;;;;;;16.23;63.31;93202.16;2053632;70;20051;-75
2023/05/27 03:24:16;;;;;;;;;;;;;;;16.27;62.88;93202.34;2050778;70;20073;-75
2023/05/27 03:26:43;;;;;;;;;;;;;;;16.26;62.76;93198.78;2051484;70;20475;-75
2023/05/27 03:29:09;;;;;;;;;;;;;;;16.18;63.19;93195.53;2050612;70;20079;-76
2023/05/27 03:31:35;;;;;;;;;;;;;;;16.20;63.23;93197.72;2050669;70;20058;-74
2023/05/27 03:34:07;;;;;;;;;;;;;;;16.10;64.25;93208.59;2050677;70;20125;-75
2023/05/27 03:36:35;;;;;;;;;;;;;;;16.16;63.02;93203.22;2053474;70;20232;-74
2023/05/27 03:39:00;;;;;;;;;;;;;;;16.18;63.19;93198.38;2053326;70;20051;-75
2023/05/27 03:41:29;;;;;;;;;;;;;;;16.06;64.03;93200.63;2050614;70;20074;-74
2023/05/27 03:43:54;;;;;;;;;;;;;;;16.02;64.02;93200.41;2050564;70;20047;-76
2023/05/27 03:46:21;;;;;;;;;;;;;;;16.05;64.12;93204.84;2050605;70;20039;-75
2023/05/27 03:48:46;;;;;;;;;;;;;;;16.14;63.76;93203.13;2050564;70;20236;-75
2023/05/27 03:51:12;;;;;;;;;;;;;;;16.15;63.07;93199.63;2050600;70;20055;-75
2023/05/27 03:53:46;;;;;;;;;;;;;;;16.29;62.71;93205.25;2051135;70;20492;-75
2023/05/27 03:56:11;;;;;;;;;;;;;;;16.09;64.29;93207.88;2050533;70;20046;-75
2023/05/27 03:58:37;;;;;;;;;;;;;;;16.17;62.62;93204.69;2051027;70;20146;-75
2023/05/27 04:01:02;;;;;;;;;;;;;;;16.23;63.14;93204.97;2051765;70;20333;-75
2023/05/27 04:03:28;;;;;;;;;;;;;;;16.18;63.29;93204.06;2051399;70;20051;-75
2023/05/27 04:05:56;;;;;;;;;;;;;;;16.17;62.65;93208.28;2051191;70;20471;-75
2023/05/27 04:08:22;;;;;;;;;;;;;;;16.17;62.93;93216.03;2051267;70;20046;-75
2023/05/27 04:10:48;;;;;;;;;;;;;;;16.29;62.57;93210.94;2051075;70;20051;-75
2023/05/27 04:13:13;;;;;;;;;;;;;;;16.11;64.85;93212.91;2051632;70;20049;-75
2023/05/27 04:15:40;;;;;;;;;;;;;;;16.20;64.33;93214.78;2051202;70;20559;-75
2023/05/27 04:18:06;;;;;;;;;;;;;;;16.37;63.36;93210.59;2051608;70;20141;-74
2023/05/27 04:20:35;;;;;;;;;;;;;;;16.26;64.25;93215.81;2051686;69;20142;-75
2023/05/27 04:23:02;;;;;;;;;;;;;;;16.26;64.57;93212.22;2051100;70;20117;-75
2023/05/27 04:25:28;;;;;;;;;;;;;;;16.33;63.76;93213.25;2051069;70;20067;-76
2023/05/27 04:28:06;;;;;;;;;;;;;;;16.44;63.36;93215.19;2050935;70;20046;-75
2023/05/27 04:30:35;;;;;;;;;;;;;;;16.39;63.86;93208.59;2051252;70;20059;-74
2023/05/27 04:33:02;;;;;;;;;;;;;;;16.44;62.65;93203.81;2051138;70;20053;-76
2023/05/27 04:35:30;;;;;;;;;;;;;;;16.48;61.93;93210.44;2051176;70;20051;-75
2023/05/27 04:38:01;;;;;;;;;;;;;;;16.43;61.99;93208.78;2051025;70;20157;-75
2023/05/27 04:40:34;;;;;;;;;;;;;;;16.31;62.62;93204.63;2051032;70;20062;-75
2023/05/27 04:43:19;;;;;;;;;;;;;;;16.38;62.43;93206.38;2051477;70;20105;-76
2023/05/27 04:45:45;;;;;;;;;;;;;;;16.58;60.89;93212.28;2053779;70;20050;-75
2023/05/27 04:48:11;;;;;;;;;;;;;;;16.45;62.98;93203.19;2053789;70;20043;-75
2023/05/27 04:50:36;;;;;;;;;;;;;;;16.62;62.85;93212.47;2051562;70;20078;-75
2023/05/27 04:53:02;;;;;;;;;;;;;;;16.59;63.67;93208.81;2051010;70;20051;-74
2023/05/27 04:55:28;;;;;;;;;;;;;;;16.68;63.15;93202.13;2050995;70;20055;-76
2023/05/27 04:57:57;;;;;;;;;;;;;;;16.74;63.32;93202.44;2051502;70;20058;-75
2023/05/27 05:00:24;;;;;;;;;;;;;;;16.72;62.77;93202.34;2050990;70;20157;-76
2023/05/27 05:03:00;;;;;;;;;;;;;;;16.69;61.96;93200.03;2050947;70;20415;-75
2023/05/27 05:05:26;;;;;;;;;;;;;;;16.57;63.34;93205.88;2050927;70;20484;-76
2023/05/27 05:07:51;;;;;;;;;;;;;;;15.92;65.97;93208.44;2051017;70;20198;-75
2023/05/27 05:10:17;;;;;;;;;;;;;;;16.27;63.70;93208.03;2050903;70;20126;-76
2023/05/27 05:12:50;;;;;;;;;;;;;;;16.57;63.08;93205.88;2051322;69;20138;-75
2023/05/27 05:15:16;;;;;;;;;;;;;;;16.79;62.25;93209.03;2050797;70;20620;-76
2023/05/27 05:17:42;;;;;;;;;;;;;;;16.72;63.31;93198.75;2050890;70;20043;-76
2023/05/27 05:20:08;;;;;;;;;;;;;;;16.67;64.34;93202.75;2053690;70;20063;-74
2023/05/27 05:22:35;;;;;;;;;;;;;;;16.80;63.92;93209.78;2050862;70;20050;-76
2023/05/27 05:25:01;;;;;;;;;;;;;;;16.98;61.72;93196.38;2050776;70;20506;-74
2023/05/27 05:27:32;;;;;;;;;;;;;;;16.88;62.31;93202.34;2050922;70;20559;-74
2023/05/27 05:29:58;;;;;;;;;;;;;;;17.11;60.82;93200.50;2051298;70;20235;-74
2023/05/27 05:32:24;;;;;;;;;;;;;;;17.15;63.70;93203.53;2048061;70;20134;-75
2023/05/27 05:34:50;;;;;;;;;;;;;;;17.20;64.08;93205.19;2050795;70;20047;-75
2023/05/27 05:37:17;;;;;;;;;;;;;;;17.36;63.19;93208.72;2051484;70;20054;-75
2023/05/27 05:39:44;;;;;;;;;;;;;;;17.24;62.92;93202.53;2050706;70;20559;-76
2023/05/27 05:42:11;;;;;;;;;;;;;;;17.45;62.27;93199.16;2051342;70;20046;-75
2023/05/27 05:44:39;;;;;;;;;;;;;;;17.36;63.01;93196.63;2053209;70;20436;-76
2023/05/27 05:47:04;;;;;;;;;;;;;;;17.38;63.03;93196.72;2051731;70;20083;-76
2023/05/27 05:49:30;;;;;;;;;;;;;;;17.39;62.08;93198.91;2054681;69;20051;-74
2023/05/27 05:51:56;;;;;;;;;;;;;;;17.39;63.88;93198.19;2054253;70;20050;-75
2023/05/27 05:54:21;;;;;;;;;;;;;;;17.58;61.83;93199.69;2054094;69;20051;-75
2023/05/27 05:56:51;;;;;;;;;;;;;;;17.44;62.22;93196.97;2054209;70;20054;-74
2023/05/27 05:59:17;;;;;;;;;;;;;;;17.44;62.18;93196.97;2054074;70;20133;-74
2023/05/27 06:01:42;;;;;;;;;;;;;;;17.48;63.66;93197.16;2054743;69;20058;-75
2023/05/27 06:04:08;;;;;;;;;;;;;;;17.50;63.78;93197.22;2054309;70;20058;-75
2023/05/27 06:06:37;;;;;;;;;;;;;;;17.61;62.72;93198.41;2054208;70;20470;-75
2023/05/27 06:09:32;;;;;;;;;;;;;;;17.67;62.03;93201.50;2053730;69;20066;-76
2023/05/27 06:12:01;;;;;;;;;;;;;;;17.84;59.65;93202.97;2054200;70;20047;-75
2023/05/27 06:14:31;;;;;;;;;;;;;;;17.88;61.16;93206.72;2056808;69;20054;-76
2023/05/27 06:16:57;;;;;;;;;;;;;;;17.88;60.85;93201.00;2054164;70;20039;-76
2023/05/27 06:19:23;;;;;;;;;;;;;;;18.03;59.40;93202.34;2054326;70;20057;-77
2023/05/27 06:21:49;;;;;;;;;;;;;;;18.09;61.18;93199.00;2054306;70;20657;-75
2023/05/27 06:24:23;;;;;;;;;;;;;;;18.25;59.60;93199.66;2055122;69;20056;-76
2023/05/27 06:26:55;;;;;;;;;;;;;;;18.46;59.92;93196.25;2054027;70;20137;-76
2023/05/27 06:29:22;;;;;;;;;;;;;;;18.60;59.53;93201.78;2054159;70;20054;-76
2023/05/27 06:31:48;;;;;;;;;;;;;;;18.80;60.04;93193.28;2054895;69;20050;-76
2023/05/27 06:34:15;;;;;;;;;;;;;;;18.86;60.19;93201.34;2057126;69;20050;-76
2023/05/27 06:36:41;;;;;;;;;;;;;;;18.89;59.92;93197.19;2054720;69;20514;-75
2023/05/27 06:39:06;;;;;;;;;;;;;;;18.90;59.08;93198.63;2054558;69;20074;-77
2023/05/27 06:41:34;;;;;;;;;;;;;;;18.98;59.48;93188.25;2054161;70;20054;-77
2023/05/27 06:44:26;;;;;;;;;;;;;;;19.09;59.32;93200.78;2054630;70;20053;-76
2023/05/27 06:47:10;;;;;;;;;;;;;;;19.17;59.34;93194.66;2054173;70;20083;-75
2023/05/27 06:49:38;;;;;;;;;;;;;;;19.08;58.22;93192.88;2056911;69;20074;-77
2023/05/27 06:52:05;;;;;;;;;;;;;;;19.26;58.27;93188.56;2056868;69;20055;-77
2023/05/27 06:54:36;;;;;;;;;;;;;;;19.40;57.64;93181.91;2054062;70;20050;-76
2023/05/27 06:57:22;;;;;;;;;;;;;;;19.55;58.71;93181.03;2054616;69;20502;-76
2023/05/27 06:59:57;;;;;;;;;;;;;;;19.70;57.79;93173.69;2054107;70;20066;-76
2023/05/27 07:02:22;;;;;;;;;;;;;;;19.65;58.08;93169.25;2054103;70;20137;-77
2023/05/27 07:04:48;;;;;;;;;;;;;;;19.81;56.73;93166.94;2054160;70;20487;-77
2023/05/27 07:07:13;;;;;;;;;;;;;;;19.62;57.23;93170.59;2054018;70;20046;-77
2023/05/27 07:09:38;;;;;;;;;;;;;;;19.43;54.52;93164.22;2054659;69;20426;-76
2023/05/27 07:12:06;;;;;;;;;;;;;;;19.36;55.34;93158.94;2054067;69;20053;-77
2023/05/27 07:14:52;;;;;;;;;;;;;;;19.37;53.98;93155.41;2056426;69;20082;-77
2023/05/27 07:17:20;;;;;;;;;;;;;;;19.21;54.63;93149.13;2053980;70;20054;-78
2023/05/27 07:19:46;;;;;;;;;;;;;;;18.57;55.56;93151.75;2056365;69;20058;-77
2023/05/27 07:22:16;;;;;;;;;;;;;;;18.86;54.57;93156.41;2053909;70;20485;-78
2023/05/27 07:24:41;;;;;;;;;;;;;;;18.85;55.84;93157.09;2054428;69;20047;-77
2023/05/27 07:27:08;;;;;;;;;;;;;;;19.55;54.53;93152.47;2053937;70;20084;-77
2023/05/27 07:29:36;;;;;;;;;;;;;;;19.91;54.76;93164.44;2053817;70;20050;-77
2023/05/27 07:32:28;;;;;;;;;;;;;;;20.08;53.36;93157.13;2054163;70;20058;-76
2023/05/27 07:34:55;;;;;;;;;;;;;;;19.68;52.42;93156.50;2054347;70;20057;-76
2023/05/27 07:37:22;;;;;;;;;;;;;;;19.96;52.70;93151.00;2055329;70;20344;-75
2023/05/27 07:39:47;;;;;;;;;;;;;;;20.36;53.03;93148.75;2055552;69;20062;-76
2023/05/27 07:42:16;;;;;;;;;;;;;;;20.15;51.89;93143.75;2054659;70;20046;-77
2023/05/27 07:44:42;;;;;;;;;;;;;;;20.00;51.29;93143.31;2057336;69;20072;-77
2023/05/27 07:47:07;;;;;;;;;;;;;;;20.51;51.50;93141.34;2054621;70;20046;-77
2023/05/27 07:49:33;;;;;;;;;;;;;;;20.75;51.66;93136.38;2054615;70;20070;-77
2023/05/27 07:52:27;;;;;;;;;;;;;;;21.04;52.13;93135.09;2054136;70;20173;-77
2023/05/27 07:54:53;;;;;;;;;;;;;;;21.10;50.47;93128.06;2054673;70;20206;-78
2023/05/27 07:57:19;;;;;;;;;;;;;;;21.23;51.06;93132.75;2054595;70;20158;-77
2023/05/27 07:59:44;;;;;;;;;;;;;;;20.98;49.59;93117.75;2057229;69;20121;-78
2023/05/27 08:02:11;;;;;;;;;;;;;;;21.61;49.55;93129.50;2054588;70;20062;-77
2023/05/27 08:04:37;;;;;;;;;;;;;;;21.88;47.78;93114.44;2054579;70;20077;-77
2023/05/27 08:07:21;;;;;;;;;;;;;;;22.46;46.72;93113.72;2055160;69;20125;-76
2023/05/27 08:10:10;;;;;;;;;;;;;;;22.50;47.00;93114.53;2054488;69;20113;-77
2023/05/27 08:13:00;;;;;;;;;;;;;;;22.74;44.91;93113.63;2057277;69;20395;-78
2023/05/27 08:15:46;;;;;;;;;;;;;;;22.71;44.69;93109.25;2053880;69;20054;-77
2023/05/27 08:18:44;;;;;;;;;;;;;;;22.80;45.40;93108.75;2050926;69;20525;-77
2023/05/27 08:21:23;;;;;;;;;;;;;;;23.51;44.47;93109.50;2055250;69;20093;-78
2023/05/27 08:24:21;;;;;;;;;;;;;;;23.91;45.51;93102.31;2048357;69;20114;-76
2023/05/27 08:27:18;;;;;;;;;;;;;;;24.45;43.55;93093.16;2054516;70;20426;-77
2023/05/27 08:29:58;;;;;;;;;;;;;;;24.94;42.26;93085.22;2054491;70;20077;-75
2023/05/27 08:32:37;;;;;;;;;;;;;;;24.59;41.17;93076.81;2054707;70;20071;-76
2023/05/27 08:35:03;;;;;;;;;;;;;;;25.39;41.44;93080.78;2054501;70;20120;-76
2023/05/27 08:37:29;;;;;;;;;;;;;;;25.68;38.93;93078.19;2054429;70;20082;-76
2023/05/27 08:39:59;;;;;;;;;;;;;;;25.45;39.11;93065.69;2054930;69;20046;-76
2023/05/27 08:42:33;;;;;;;;;;;;;;;25.58;40.20;93064.41;2054541;70;20055;-77
2023/05/27 08:44:59;;;;;;;;;;;;;;;25.78;39.93;93067.50;2054932;69;20075;-77
2023/05/27 08:47:26;;;;;;;;;;;;;;;26.15;40.94;93064.22;2055132;69;20038;-77
2023/05/27 08:49:51;;;;;;;;;;;;;;;26.57;37.99;93053.03;2054333;70;20145;-77
2023/05/27 08:52:20;;;;;;;;;;;;;;;26.54;38.20;93051.56;2055118;69;20148;-78
2023/05/27 08:54:46;;;;;;;;;;;;;;;26.91;38.16;93051.06;2054596;70;20065;-78
2023/05/27 08:57:12;;;;;;;;;;;;;;;27.14;37.41;93051.91;2051729;70;20487;-77
2023/05/27 08:59:38;;;;;;;;;;;;;;;27.46;37.94;93054.94;2054427;70;20062;-78
2023/05/27 09:02:10;;;;;;;;;;;;;;;28.02;35.38;93044.94;2054473;70;20093;-78
2023/05/27 09:04:36;;;;;;;;;;;;;;;27.95;35.01;93042.75;2054514;70;20055;-78
2023/05/27 09:07:02;;;;;;;;;;;;;;;27.99;35.22;93034.78;2054840;70;20136;-79
2023/05/27 09:09:28;;;;;;;;;;;;;;;26.94;35.28;93035.91;2054471;69;20038;-78
2023/05/27 09:11:59;;;;;;;;;;;;;;;28.15;31.53;93031.19;2054855;70;20077;-77
2023/05/27 09:14:24;;;;;;;;;;;;;;;28.32;30.80;93029.75;2054686;69;20058;-76
2023/05/27 09:16:50;;;;;;;;;;;;;;;27.50;32.58;93022.41;2054986;69;20407;-79
2023/05/27 09:19:16;;;;;;;;;;;;;;;28.51;31.27;93018.91;2055254;69;20517;-77
2023/05/27 09:21:41;;;;;;;;;;;;;;;26.82;31.11;93021.41;2056226;69;20046;-79
2023/05/27 09:24:08;;;;;;;;;;;;;;;27.80;31.59;93013.09;2055157;69;20070;-77
2023/05/27 09:26:34;;;;;;;;;;;;;;;26.95;30.63;93007.75;2059939;69;20054;-77
2023/05/27 09:29:03;;;;;;;;;;;;;;;27.58;31.07;93008.72;2055980;69;20140;-78
2023/05/27 09:31:28;;;;;;;;;;;;;;;28.56;28.89;93011.66;2055256;69;20061;-80
2023/05/27 09:33:53;;;;;;;;;;;;;;;28.18;29.07;93006.59;2055090;69;20050;-80
2023/05/27 09:36:20;;;;;;;;;;;;;;;29.52;29.08;93005.53;2055118;69;20125;-80
2023/05/27 09:38:46;;;;;;;;;;;;;;;28.96;27.05;93007.25;2054807;69;20113;-79
2023/05/27 09:41:11;;;;;;;;;;;;;;;29.88;28.32;93007.50;2055060;69;20050;-78
2023/05/27 09:43:37;;;;;;;;;;;;;;;30.62;28.12;93007.63;2054822;69;20431;-81
2023/05/27 09:46:07;;;;;;;;;;;;;;;30.03;24.66;92998.69;2054897;69;20131;-78
2023/05/27 09:48:32;;;;;;;;;;;;;;;30.04;25.40;92997.94;2055250;69;20498;-80
2023/05/27 09:50:59;;;;;;;;;;;;;;;31.01;26.21;92998.53;2054402;70;20043;-78
2023/05/27 09:53:26;;;;;;;;;;;;;;;30.97;24.72;92992.03;2054896;69;20050;-80
2023/05/27 09:55:52;;;;;;;;;;;;;;;28.74;26.93;92993.50;2054994;69;20082;-80
2023/05/27 09:58:20;;;;;;;;;;;;;;;30.37;25.80;92989.72;2054822;69;20053;-78
2023/05/27 10:00:47;;;;;;;;;;;;;;;30.10;28.11;92992.13;2055031;69;20062;-78
2023/05/27 10:03:16;;;;;;;;;;;;;;;31.21;23.74;92991.78;2055122;69;20448;-80
2023/05/27 10:05:42;;;;;;;;;;;;;;;31.20;24.80;92975.75;2054875;69;20053;-80
2023/05/27 10:08:08;;;;;;;;;;;;;;;31.49;24.36;92984.16;2054859;70;20086;-77
2023/05/27 10:10:33;;;;;;;;;;;;;;;31.79;23.74;92974.28;2054996;69;20053;-77
2023/05/27 10:12:59;;;;;;;;;;;;;;;31.52;23.19;92968.09;2054699;70;20051;-77
2023/05/27 10:15:29;;;;;;;;;;;;;;;32.60;22.97;92966.44;2054861;69;20057;-77
2023/05/27 10:17:55;;;;;;;;;;;;;;;32.22;24.20;92968.53;2054801;69;20434;-77
2023/05/27 10:20:27;;;;;;;;;;;;;;;33.63;21.23;92954.94;2054857;69;20455;-77
2023/05/27 10:22:53;;;;;;;;;;;;;;;32.49;22.33;92960.09;2054788;69;20141;-77
2023/05/27 10:25:18;;;;;;;;;;;;;;;33.39;21.65;92964.91;2054364;69;20064;-77
2023/05/27 10:27:46;;;;;;;;;;;;;;;33.29;21.27;92959.28;2053834;70;20468;-77
2023/05/27 10:30:13;;;;;;;;;;;;;;;33.52;22.06;92956.66;2054207;70;20046;-77
2023/05/27 10:32:49;;;;;;;;;;;;;;;34.63;20.69;92958.41;2054786;69;20050;-77
2023/05/27 10:35:18;;;;;;;;;;;;;;;33.96;19.66;92953.50;2054771;69;20076;-77
2023/05/27 10:37:46;;;;;;;;;;;;;;;36.18;18.92;92952.53;2054320;70;20141;-77
2023/05/27 10:40:11;;;;;;;;;;;;;;;39.45;16.75;92955.53;2054227;70;20088;-78
2023/05/27 10:42:38;;;;;;;;;;;;;;;41.03;16.52;92964.25;2054734;70;20066;-78
2023/05/27 10:45:05;;;;;;;;;;;;;;;41.64;15.06;92955.16;2054818;69;20056;-77
2023/05/27 10:47:30;;;;;;;;;;;;;;;40.80;15.61;92959.47;2054792;69;20141;-78
2023/05/27 10:49:57;;;;;;;;;;;;;;;42.78;14.21;92951.09;2054797;69;20115;-77
2023/05/27 10:52:25;;;;;;;;;;;;;;;41.45;13.80;92949.53;2054737;70;20063;-78
2023/05/27 10:54:52;;;;;;;;;;;;;;;44.34;14.32;92955.63;2054887;69;20093;-79
2023/05/27 10:57:17;;;;;;;;;;;;;;;43.49;13.17;92949.84;2054800;69;20069;-78
2023/05/27 10:59:50;;;;;;;;;;;;;;;40.37;14.15;92935.03;2054636;69;20050;-77
2023/05/27 11:02:17;;;;;;;;;;;;;;;42.99;13.18;92944.69;2054833;69;20488;-79
2023/05/27 11:04:42;;;;;;;;;;;;;;;44.00;12.66;92943.72;2054756;69;20054;-77
2023/05/27 11:07:08;;;;;;;;;;;;;;;44.19;11.07;92948.47;2055015;69;20501;-77
2023/05/27 11:09:44;;;;;;;;;;;;;;;44.98;12.98;92934.38;2054218;70;20483;-77
2023/05/27 11:12:16;;;;;;;;;;;;;;;46.25;12.08;92944.19;2053648;70;20511;-77
2023/05/27 11:14:41;;;;;;;;;;;;;;;48.50;10.66;92936.00;2056494;69;20161;-77
2023/05/27 11:17:09;;;;;;;;;;;;;;;47.18;10.29;92923.22;2057148;69;20177;-77
2023/05/27 11:19:35;;;;;;;;;;;;;;;42.39;12.33;92930.34;2051234;69;20142;-78
2023/05/27 11:22:02;;;;;;;;;;;;;;;43.04;11.88;92916.97;2049641;70;20100;-76
2023/05/27 11:24:28;;;;;;;;;;;;;;;43.50;11.89;92923.88;2054085;70;20062;-76
2023/05/27 11:26:54;;;;;;;;;;;;;;;47.45;10.64;92918.94;2052379;70;20059;-78
2023/05/27 11:29:19;;;;;;;;;;;;;;;45.12;10.77;92918.59;2051936;70;20055;-77
2023/05/27 11:31:47;;;;;;;;;;;;;;;47.52;9.84;92914.63;2051673;70;20054;-78
2023/05/27 11:34:14;;;;;;;;;;;;;;;49.50;8.50;92918.75;2052265;69;20430;-77
2023/05/27 11:36:39;;;;;;;;;;;;;;;49.66;8.93;92913.63;2050998;70;20070;-76
2023/05/27 11:39:05;;;;;;;;;;;;;;;50.33;9.62;92910.75;2051960;69;20059;-76
2023/05/27 11:41:31;;;;;;;;;;;;;;;48.48;10.17;92894.38;2048832;70;20054;-76
2023/05/27 11:44:06;;;;;;;;;;;;;;;49.80;9.25;92897.44;2051934;69;20057;-76
2023/05/27 11:46:35;;;;;;;;;;;;;;;45.55;11.23;92882.97;2052007;69;20058;-77
2023/05/27 11:49:01;;;;;;;;;;;;;;;44.75;11.20;92869.16;2051751;70;20500;-77
2023/05/27 11:51:28;;;;;;;;;;;;;;;46.07;10.89;92877.06;2052281;69;20496;-77
2023/05/27 11:53:54;;;;;;;;;;;;;;;47.87;10.25;92876.81;2052151;70;20061;-77
2023/05/27 11:56:21;;;;;;;;;;;;;;;46.85;9.68;92866.81;2052222;69;20046;-77
2023/05/27 11:58:47;;;;;;;;;;;;;;;49.56;8.98;92883.03;2051132;69;20066;-77
2023/05/27 12:01:12;;;;;;;;;;;;;;;45.66;10.58;92867.38;2052194;70;20035;-78
2023/05/27 12:03:38;;;;;;;;;;;;;;;49.63;9.30;92877.22;2051846;70;20088;-78
2023/05/27 12:06:04;;;;;;;;;;;;;;;49.88;8.78;92869.13;2052061;70;20391;-77
2023/05/27 12:08:31;;;;;;;;;;;;;;;45.81;9.69;92862.56;2051642;70;20547;-77
2023/05/27 12:10:56;;;;;;;;;;;;;;;49.79;9.53;92860.84;2052085;69;20176;-78
2023/05/27 12:13:23;;;;;;;;;;;;;;;50.80;8.21;92865.28;2052007;69;20459;-78
2023/05/27 12:15:48;;;;;;;;;;;;;;;47.89;8.89;92846.13;2051948;70;20054;-78
2023/05/27 12:18:14;;;;;;;;;;;;;;;46.06;9.13;92846.63;2052214;69;20066;-79
2023/05/27 12:20:40;;;;;;;;;;;;;;;48.63;9.53;92849.13;2052307;70;20114;-79
2023/05/27 12:23:05;;;;;;;;;;;;;;;46.71;10.96;92841.09;2052238;70;20135;-78
2023/05/27 12:25:31;;;;;;;;;;;;;;;49.03;9.39;92848.69;2051188;70;20063;-79
2023/05/27 12:27:56;;;;;;;;;;;;;;;44.17;11.46;92838.84;2051377;69;20146;-78
2023/05/27 12:30:22;;;;;;;;;;;;;;;45.43;11.19;92829.63;2050817;70;20165;-78
2023/05/27 12:32:47;;;;;;;;;;;;;;;43.00;12.72;92803.97;2051656;70;20181;-78
2023/05/27 12:35:12;;;;;;;;;;;;;;;40.06;14.88;92802.41;2051697;70;20053;-78
2023/05/27 12:37:38;;;;;;;;;;;;;;;37.91;16.02;92787.84;2051498;69;20093;-77
2023/05/27 12:40:09;;;;;;;;;;;;;;;36.84;16.17;92799.31;2051613;69;20106;-78
2023/05/27 12:42:34;;;;;;;;;;;;;;;35.41;16.80;92783.63;2051554;70;20055;-77
2023/05/27 12:45:00;;;;;;;;;;;;;;;36.42;17.13;92783.94;2051293;69;20133;-77
2023/05/27 12:47:25;;;;;;;;;;;;;;;35.56;17.46;92775.88;2051410;70;20570;-77
2023/05/27 12:49:51;;;;;;;;;;;;;;;34.53;18.86;92777.47;2051567;70;20062;-77
2023/05/27 12:52:16;;;;;;;;;;;;;;;34.76;16.81;92777.53;2051604;69;20098;-77